createdAt,value
2022-11-12T00:00:17.822Z,100.00
2022-11-12T00:01:40.901Z,100.00
2022-11-12T00:03:01.747Z,100.00
2022-11-12T00:04:22.447Z,100.00
2022-11-12T00:05:45.245Z,100.00
2022-11-12T00:07:11.134Z,100.00
2022-11-12T00:08:32.750Z,100.00
2022-11-12T00:09:53.427Z,100.00
2022-11-12T00:11:13.980Z,100.00
2022-11-12T00:12:37.540Z,100.00
2022-11-12T00:13:58.785Z,100.00
2022-11-12T00:15:19.871Z,100.00
2022-11-12T00:16:40.334Z,100.00
2022-11-12T00:18:01.138Z,100.00
2022-11-12T00:19:21.451Z,100.00
2022-11-12T00:20:42.198Z,100.00
2022-11-12T00:22:02.772Z,100.00
2022-11-12T00:23:23.289Z,100.00
2022-11-12T00:24:43.786Z,100.00
2022-11-12T00:26:04.944Z,100.00
2022-11-12T00:27:26.047Z,100.00
2022-11-12T00:28:47.288Z,100.00
2022-11-12T00:30:12.700Z,100.00
2022-11-12T00:31:34.197Z,100.00
2022-11-12T00:32:54.540Z,100.00
2022-11-12T00:34:15.334Z,100.00
2022-11-12T00:35:36.153Z,100.00
2022-11-12T00:36:56.774Z,100.00
2022-11-12T00:38:16.936Z,100.00
2022-11-12T00:39:39.464Z,100.00
2022-11-12T00:41:00.476Z,100.00
2022-11-12T00:42:20.890Z,100.00
2022-11-12T00:43:41.441Z,100.00
2022-11-12T00:45:02.203Z,100.00
2022-11-12T00:46:22.872Z,100.00
2022-11-12T00:47:43.414Z,100.00
2022-11-12T00:49:03.975Z,100.00
2022-11-12T00:50:27.104Z,100.00
2022-11-12T00:51:47.972Z,100.00
2022-11-12T00:53:08.589Z,100.00
2022-11-12T00:54:29.260Z,100.00
2022-11-12T00:55:50.471Z,100.00
2022-11-12T00:57:10.908Z,100.00
2022-11-12T00:58:34.499Z,100.00
2022-11-12T00:59:55.068Z,100.00
2022-11-12T01:01:16.253Z,100.00
2022-11-12T01:02:42.474Z,100.00
2022-11-12T01:04:00.219Z,100.00
2022-11-12T01:05:21.295Z,100.00
2022-11-12T01:06:42.177Z,100.00
2022-11-12T01:08:02.976Z,100.00
2022-11-12T01:09:23.539Z,100.00
2022-11-12T01:10:43.953Z,100.00
2022-11-12T01:12:04.734Z,100.00
2022-11-12T01:13:25.450Z,100.00
2022-11-12T01:14:46.083Z,100.00
2022-11-12T01:17:18.731Z,100.00
2022-11-12T01:18:39.646Z,100.00
2022-11-12T01:20:00.128Z,100.00
2022-11-12T01:21:22.984Z,100.00
2022-11-12T01:22:43.510Z,100.00
2022-11-12T01:24:04.665Z,100.00
2022-11-12T01:25:25.136Z,100.00
2022-11-12T01:26:47.174Z,100.00
2022-11-12T01:28:07.530Z,100.00
2022-11-12T01:29:28.023Z,100.00
2022-11-12T01:30:48.602Z,100.00
2022-11-12T01:32:09.447Z,100.00
2022-11-12T01:33:30.057Z,100.00
2022-11-12T01:34:50.750Z,100.00
2022-11-12T01:36:14.568Z,100.00
2022-11-12T01:37:34.997Z,100.00
2022-11-12T01:38:55.852Z,100.00
2022-11-12T01:40:17.813Z,100.00
2022-11-12T01:41:40.386Z,100.00
2022-11-12T01:43:00.777Z,100.00
2022-11-12T01:44:24.680Z,100.00
2022-11-12T01:45:48.155Z,100.00
2022-11-12T01:47:30.200Z,100.00
2022-11-12T01:48:56.913Z,100.00
2022-11-12T01:50:29.798Z,100.00
2022-11-12T01:51:53.869Z,100.00
2022-11-12T01:53:14.536Z,100.00
2022-11-12T01:54:35.708Z,100.00
2022-11-12T01:55:58.171Z,100.00
2022-11-12T01:57:22.648Z,100.00
2022-11-12T01:58:46.029Z,100.00
2022-11-12T02:00:11.583Z,100.00
2022-11-12T02:01:32.671Z,100.00
2022-11-12T02:02:57.471Z,100.00
2022-11-12T02:04:19.226Z,100.00
2022-11-12T02:05:41.646Z,100.00
2022-11-12T02:07:02.955Z,100.00
2022-11-12T02:08:26.598Z,100.00
2022-11-12T02:09:47.190Z,100.00
2022-11-12T02:11:16.714Z,100.00
2022-11-12T02:12:38.011Z,100.00
2022-11-12T02:13:58.634Z,100.00
2022-11-12T02:15:18.908Z,100.00
2022-11-12T02:16:42.502Z,100.00
2022-11-12T02:18:04.172Z,100.00
2022-11-12T02:19:24.641Z,100.00
2022-11-12T02:20:46.860Z,100.00
2022-11-12T02:22:06.951Z,100.00
2022-11-12T02:23:27.425Z,100.00
2022-11-12T02:24:48.031Z,100.00
2022-11-12T02:26:09.071Z,100.00
2022-11-12T02:27:29.791Z,100.00
2022-11-12T02:28:50.979Z,100.00
2022-11-12T02:30:12.525Z,100.00
2022-11-12T02:31:33.148Z,100.00
2022-11-12T02:32:53.727Z,100.00
2022-11-12T02:34:14.289Z,100.00
2022-11-12T02:35:36.489Z,100.00
2022-11-12T02:36:59.371Z,100.00
2022-11-12T02:38:19.998Z,100.00
2022-11-12T02:39:40.250Z,100.00
2022-11-12T02:41:00.731Z,100.00
2022-11-12T02:42:20.957Z,100.00
2022-11-12T02:43:41.461Z,100.00
2022-11-12T02:45:01.986Z,100.00
2022-11-12T02:47:52.965Z,100.00
2022-11-12T02:49:13.913Z,100.00
2022-11-12T02:50:36.299Z,100.00
2022-11-12T02:51:56.893Z,100.00
2022-11-12T02:53:17.299Z,100.00
2022-11-12T02:54:37.807Z,100.00
2022-11-12T02:55:59.613Z,100.00
2022-11-12T02:57:19.966Z,100.00
2022-11-12T02:58:40.748Z,100.00
2022-11-12T03:00:03.589Z,100.00
2022-11-12T03:01:24.125Z,100.00
2022-11-12T03:02:44.796Z,100.00
2022-11-12T03:04:05.317Z,100.00
2022-11-12T03:05:28.376Z,100.00
2022-11-12T03:06:48.523Z,100.00
2022-11-12T03:08:09.373Z,100.00
2022-11-12T03:09:29.786Z,100.00
2022-11-12T03:10:50.892Z,100.00
2022-11-12T03:12:11.150Z,100.00
2022-11-12T03:13:31.437Z,100.00
2022-11-12T03:14:51.994Z,100.00
2022-11-12T03:16:13.056Z,100.00
2022-11-12T03:17:34.198Z,100.00
2022-11-12T03:18:56.080Z,100.00
2022-11-12T03:20:17.013Z,100.00
2022-11-12T03:21:37.790Z,100.00
2022-11-12T03:23:03.464Z,100.00
2022-11-12T03:24:24.713Z,100.00
2022-11-12T03:25:46.242Z,100.00
2022-11-12T03:27:06.707Z,100.00
2022-11-12T03:28:28.090Z,100.00
2022-11-12T03:29:48.735Z,100.00
2022-11-12T03:31:09.166Z,100.00
2022-11-12T03:32:29.838Z,100.00
2022-11-12T03:33:50.922Z,100.00
2022-11-12T03:35:19.361Z,100.00
2022-11-12T03:36:40.425Z,100.00
2022-11-12T03:38:01.682Z,100.00
2022-11-12T03:39:22.709Z,100.00
2022-11-12T03:40:43.458Z,100.00
2022-11-12T03:42:07.512Z,100.00
2022-11-12T03:43:28.732Z,100.00
2022-11-12T03:44:49.422Z,100.00
2022-11-12T03:46:13.278Z,100.00
2022-11-12T03:47:34.528Z,100.00
2022-11-12T03:48:55.210Z,100.00
2022-11-12T03:50:18.982Z,100.00
2022-11-12T03:51:41.595Z,100.00
2022-11-12T03:53:03.326Z,100.00
2022-11-12T03:54:24.607Z,100.00
2022-11-12T03:55:44.897Z,100.00
2022-11-12T03:57:09.104Z,100.00
2022-11-12T03:58:29.793Z,100.00
2022-11-12T03:59:50.091Z,100.00
2022-11-12T04:01:10.762Z,100.00
2022-11-12T04:02:32.462Z,100.00
2022-11-12T04:03:52.562Z,100.00
2022-11-12T04:05:15.103Z,100.00
2022-11-12T04:06:35.574Z,100.00
2022-11-12T04:08:00.387Z,100.00
2022-11-12T04:09:21.757Z,100.00
2022-11-12T04:10:44.132Z,100.00
2022-11-12T04:12:04.716Z,100.00
2022-11-12T04:13:25.535Z,100.00
2022-11-12T04:14:47.065Z,100.00
2022-11-12T04:16:19.457Z,100.00
2022-11-12T04:17:42.438Z,100.00
2022-11-12T04:19:08.782Z,100.00
2022-11-12T04:20:29.616Z,100.00
2022-11-12T04:21:57.617Z,100.00
2022-11-12T04:23:18.046Z,100.00
2022-11-12T04:24:40.543Z,100.00
2022-11-12T04:26:00.909Z,100.00
2022-11-12T04:27:27.293Z,100.00
2022-11-12T04:28:47.568Z,100.00
2022-11-12T04:30:09.444Z,100.00
2022-11-12T04:31:30.426Z,100.00
2022-11-12T04:32:53.830Z,100.00
2022-11-12T04:34:14.496Z,100.00
2022-11-12T04:35:35.320Z,100.00
2022-11-12T04:36:56.638Z,100.00
2022-11-12T04:38:19.996Z,100.00
2022-11-12T04:39:41.366Z,100.00
2022-11-12T04:41:05.287Z,100.00
2022-11-12T04:42:28.224Z,100.00
2022-11-12T04:43:48.864Z,100.00
2022-11-12T04:45:10.530Z,100.00
2022-11-12T04:46:30.610Z,100.00
2022-11-12T04:47:51.337Z,100.00
2022-11-12T04:49:15.651Z,100.00
2022-11-12T04:50:37.894Z,100.00
2022-11-12T04:51:59.313Z,100.00
2022-11-12T04:53:20.584Z,100.00
2022-11-12T04:54:40.871Z,100.00
2022-11-12T04:56:01.358Z,100.00
2022-11-12T04:57:23.194Z,100.00
2022-11-12T04:58:45.334Z,100.00
2022-11-12T05:00:07.466Z,100.00
2022-11-12T05:01:27.898Z,100.00
2022-11-12T05:02:51.320Z,100.00
2022-11-12T05:04:11.577Z,100.00
2022-11-12T05:05:34.122Z,100.00
2022-11-12T05:06:58.166Z,100.00
2022-11-12T05:08:19.579Z,100.00
2022-11-12T05:09:40.647Z,100.00
2022-11-12T05:11:00.806Z,100.00
2022-11-12T05:12:21.523Z,100.00
2022-11-12T05:13:42.036Z,100.00
2022-11-12T05:15:03.754Z,100.00
2022-11-12T05:16:24.245Z,100.00
2022-11-12T05:17:45.014Z,100.00
2022-11-12T05:19:07.264Z,100.00
2022-11-12T05:20:28.120Z,100.00
2022-11-12T05:21:48.396Z,100.00
2022-11-12T05:23:08.962Z,100.00
2022-11-12T05:24:41.711Z,100.00
2022-11-12T05:25:52.761Z,100.00
2022-11-12T05:27:16.035Z,100.00
2022-11-12T05:28:36.575Z,100.00
2022-11-12T05:29:56.905Z,100.00
2022-11-12T05:31:17.778Z,100.00
2022-11-12T05:32:37.962Z,100.00
2022-11-12T05:33:59.194Z,100.00
2022-11-12T05:35:19.367Z,100.00
2022-11-12T05:36:40.027Z,100.00
2022-11-12T05:38:00.311Z,100.00
2022-11-12T05:39:20.842Z,100.00
2022-11-12T05:40:44.052Z,100.00
2022-11-12T05:42:13.870Z,100.00
2022-11-12T05:43:27.753Z,100.00
2022-11-12T05:44:48.591Z,100.00
2022-11-12T05:46:14.060Z,100.00
2022-11-12T05:47:41.052Z,100.00
2022-11-12T05:49:04.951Z,100.00
2022-11-12T05:50:34.911Z,100.00
2022-11-12T05:51:54.986Z,100.00
2022-11-12T05:53:17.871Z,100.00
2022-11-12T05:54:40.875Z,100.00
2022-11-12T05:56:04.326Z,100.00
2022-11-12T05:57:27.098Z,100.00
2022-11-12T05:58:47.538Z,100.00
2022-11-12T06:00:10.945Z,100.00
2022-11-12T06:01:35.376Z,100.00
2022-11-12T06:02:59.321Z,100.00
2022-11-12T06:04:20.441Z,100.00
2022-11-12T06:05:41.053Z,100.00
2022-11-12T06:07:07.582Z,100.00
2022-11-12T06:08:34.040Z,100.00
2022-11-12T06:09:56.359Z,100.00
2022-11-12T06:11:18.028Z,100.00
2022-11-12T06:12:38.579Z,100.00
2022-11-12T06:13:59.550Z,100.00
2022-11-12T06:15:20.810Z,100.00
2022-11-12T06:16:42.002Z,100.00
2022-11-12T06:18:02.933Z,100.00
2022-11-12T06:19:23.758Z,100.00
2022-11-12T06:20:44.447Z,100.00
2022-11-12T06:22:05.761Z,100.00
2022-11-12T06:23:26.521Z,100.00
2022-11-12T06:24:47.627Z,100.00
2022-11-12T06:26:11.598Z,100.00
2022-11-12T06:27:32.526Z,100.00
2022-11-12T06:28:53.697Z,100.00
2022-11-12T06:30:14.679Z,100.00
2022-11-12T06:31:36.076Z,100.00
2022-11-12T06:32:57.055Z,100.00
2022-11-12T10:28:05.019Z,78.71
2022-11-12T10:31:05.866Z,79.03
2022-11-12T10:36:33.954Z,78.43
2022-11-12T10:38:03.713Z,78.94
2022-11-12T10:39:39.975Z,79.11
2022-11-12T10:41:08.158Z,79.42
2022-11-12T10:42:26.626Z,79.27
2022-11-12T10:44:04.446Z,79.03
2022-11-12T10:45:26.123Z,78.88
2022-11-12T10:46:46.767Z,79.09
2022-11-12T10:48:27.031Z,79.22
2022-11-12T10:50:05.384Z,79.47
2022-11-12T10:51:35.435Z,77.72
2022-11-12T10:53:02.357Z,78.01
2022-11-12T10:54:31.757Z,77.38
2022-11-12T10:57:23.244Z,78.03
2022-11-12T10:58:43.511Z,77.78
2022-11-12T11:00:13.545Z,78.26
2022-11-12T11:01:35.937Z,78.28
2022-11-12T11:02:58.853Z,78.04
2022-11-12T11:04:28.989Z,77.75
2022-11-12T11:06:08.498Z,78.05
2022-11-12T11:07:29.124Z,79.14
2022-11-12T11:08:52.276Z,79.16
2022-11-12T11:10:25.628Z,79.55
2022-11-12T11:11:53.628Z,79.70
2022-11-12T11:13:23.914Z,78.95
2022-11-12T11:14:44.298Z,79.21
2022-11-12T11:16:08.852Z,80.81
2022-11-12T11:17:29.723Z,82.80
2022-11-12T11:18:54.162Z,78.86
2022-11-12T11:20:30.516Z,73.11
2022-11-12T11:21:54.344Z,78.85
2022-11-12T11:23:25.190Z,72.73
2022-11-12T11:25:02.280Z,74.70
2022-11-12T11:26:47.328Z,73.35
2022-11-12T11:28:27.156Z,74.34
2022-11-12T11:29:57.582Z,72.80
2022-11-12T11:31:30.451Z,77.31
2022-11-12T11:33:03.443Z,73.18
2022-11-12T11:36:05.154Z,72.88
2022-11-12T11:37:28.907Z,70.06
2022-11-12T11:39:05.137Z,71.21
2022-11-12T11:40:29.265Z,74.05
2022-11-12T11:42:11.549Z,73.44
2022-11-12T11:44:13.788Z,68.60
2022-11-12T11:45:46.982Z,74.05
2022-11-12T11:47:44.147Z,69.80
2022-11-12T11:49:02.669Z,70.26
2022-11-12T11:52:44.054Z,72.65
2022-11-12T11:54:33.656Z,73.59
2022-11-12T11:56:03.578Z,74.52
2022-11-12T11:57:38.948Z,74.63
2022-11-12T11:59:09.217Z,75.16
2022-11-12T12:00:51.674Z,75.38
2022-11-12T12:02:32.643Z,75.07
2022-11-12T12:03:59.644Z,75.08
2022-11-12T12:05:43.301Z,74.80
2022-11-12T12:07:07.468Z,74.81
2022-11-12T12:08:37.530Z,74.41
2022-11-12T12:10:09.342Z,73.28
2022-11-12T12:11:39.945Z,73.83
2022-11-12T12:13:04.174Z,74.38
2022-11-12T12:14:45.292Z,75.33
2022-11-12T12:16:21.623Z,75.95
2022-11-12T12:17:48.158Z,75.90
2022-11-12T12:19:21.998Z,76.55
2022-11-12T12:21:04.520Z,76.71
2022-11-12T12:22:38.287Z,77.13
2022-11-12T12:24:04.677Z,77.61
2022-11-12T12:25:31.497Z,78.12
2022-11-12T12:26:55.407Z,77.91
2022-11-12T12:28:36.337Z,77.87
2022-11-12T12:30:03.441Z,77.72
2022-11-12T12:31:31.067Z,78.20
2022-11-12T12:33:01.125Z,77.92
2022-11-12T12:34:31.358Z,77.87
2022-11-12T12:36:02.019Z,78.12
2022-11-12T12:37:47.480Z,77.80
2022-11-12T12:39:20.237Z,78.04
2022-11-12T12:40:49.706Z,78.56
2022-11-12T12:42:20.415Z,78.20
2022-11-12T12:43:50.484Z,78.39
2022-11-12T12:45:21.553Z,78.48
2022-11-12T12:46:48.279Z,78.47
2022-11-12T12:48:15.166Z,78.66
2022-11-12T12:49:37.262Z,78.39
2022-11-12T12:50:58.030Z,78.69
2022-11-12T12:52:18.271Z,78.29
2022-11-12T12:53:38.967Z,78.71
2022-11-12T12:54:59.425Z,78.76
2022-11-12T12:56:27.111Z,78.34
2022-11-12T12:57:48.348Z,78.14
2022-11-12T12:59:21.759Z,78.46
2022-11-12T13:00:51.567Z,78.39
2022-11-12T13:02:21.729Z,78.67
2022-11-12T13:03:54.825Z,78.26
2022-11-12T13:05:28.409Z,78.33
2022-11-12T13:06:55.028Z,78.22
2022-11-12T13:08:26.567Z,78.39
2022-11-12T13:09:57.381Z,78.65
2022-11-12T13:11:42.812Z,78.93
2022-11-12T13:13:07.316Z,79.02
2022-11-12T13:14:37.721Z,79.05
2022-11-12T13:15:59.919Z,79.16
2022-11-12T13:17:43.720Z,78.93
2022-11-12T13:19:04.745Z,79.10
2022-11-12T13:20:35.364Z,79.41
2022-11-12T13:22:19.684Z,79.55
2022-11-12T13:25:14.676Z,79.75
2022-11-12T13:26:47.641Z,79.81
2022-11-12T13:28:09.607Z,79.52
2022-11-12T13:29:34.091Z,79.79
2022-11-12T13:30:57.190Z,79.68
2022-11-12T13:32:30.177Z,79.78
2022-11-12T13:33:50.744Z,79.91
2022-11-12T13:35:18.041Z,79.89
2022-11-12T13:36:39.774Z,79.57
2022-11-12T13:38:14.034Z,80.03
2022-11-12T13:39:35.375Z,79.97
2022-11-12T13:40:59.475Z,79.77
2022-11-12T13:42:20.168Z,79.99
2022-11-12T13:43:46.585Z,80.04
2022-11-12T13:45:10.074Z,80.02
2022-11-12T13:46:32.808Z,79.89
2022-11-12T13:47:54.921Z,80.29
2022-11-12T13:49:16.974Z,80.34
2022-11-12T13:50:40.962Z,80.18
2022-11-12T13:52:03.715Z,80.38
2022-11-12T13:53:27.323Z,80.24
2022-11-12T13:54:52.126Z,80.21
2022-11-12T13:56:25.446Z,80.42
2022-11-12T13:57:50.548Z,80.31
2022-11-12T13:59:15.752Z,80.13
2022-11-12T14:00:37.634Z,80.32
2022-11-12T14:02:01.861Z,80.25
2022-11-12T14:03:26.281Z,80.10
2022-11-12T14:04:46.872Z,80.19
2022-11-12T14:06:20.765Z,80.14
2022-11-12T14:08:03.129Z,80.01
2022-11-12T14:09:27.420Z,80.34
2022-11-12T14:11:03.706Z,80.47
2022-11-12T14:12:38.223Z,80.38
2022-11-12T14:14:19.293Z,80.16
2022-11-12T14:15:52.113Z,80.01
2022-11-12T14:17:25.317Z,80.19
2022-11-12T14:19:13.629Z,80.14
2022-11-12T14:20:39.342Z,80.03
2022-11-12T14:22:03.653Z,80.17
2022-11-12T14:23:26.028Z,80.39
2022-11-12T14:24:50.593Z,80.12
2022-11-12T14:26:12.642Z,80.10
2022-11-12T14:27:35.289Z,80.00
2022-11-12T14:28:58.474Z,80.23
2022-11-12T14:30:24.969Z,79.98
2022-11-12T14:31:46.171Z,79.66
2022-11-12T14:33:10.955Z,79.62
2022-11-12T14:34:33.459Z,79.52
2022-11-12T18:05:59.195Z,94.35
2022-11-12T18:07:20.874Z,94.50
2022-11-12T18:08:43.984Z,94.64
2022-11-12T18:10:05.707Z,94.78
2022-11-12T18:11:28.624Z,94.87
2022-11-12T18:12:52.298Z,94.92
2022-11-12T18:14:12.716Z,95.17
2022-11-12T18:15:33.089Z,94.46
2022-11-12T18:16:53.832Z,94.60
2022-11-12T18:18:14.413Z,95.15
2022-11-12T18:19:37.460Z,94.82
2022-11-12T18:20:58.108Z,94.95
2022-11-12T18:22:18.814Z,94.76
2022-11-12T18:23:41.237Z,94.83
2022-11-12T18:25:01.991Z,94.88
2022-11-12T18:26:22.944Z,94.43
2022-11-12T18:27:43.551Z,95.05
2022-11-12T18:29:04.383Z,95.45
2022-11-12T18:30:25.587Z,96.70
2022-11-12T18:31:49.628Z,95.21
2022-11-12T18:33:11.373Z,94.76
2022-11-12T18:34:32.742Z,94.39
2022-11-12T18:36:03.677Z,95.33
2022-11-12T18:37:26.904Z,95.86
2022-11-12T18:38:50.668Z,95.78
2022-11-12T18:40:13.462Z,95.95
2022-11-12T18:41:33.780Z,96.62
2022-11-12T18:42:55.028Z,97.15
2022-11-12T18:44:16.841Z,97.43
2022-11-12T18:45:37.084Z,97.46
2022-11-12T18:46:57.513Z,97.59
2022-11-12T18:48:18.498Z,97.73
2022-11-12T18:49:39.084Z,97.74
2022-11-12T18:51:06.802Z,98.00
2022-11-12T18:52:27.953Z,98.52
2022-11-12T18:53:49.432Z,98.66
2022-11-12T18:55:12.383Z,98.74
2022-11-12T18:56:32.573Z,99.29
2022-11-12T18:57:53.744Z,99.53
2022-11-12T18:59:18.716Z,99.81
2022-11-12T19:00:39.350Z,100.00
2022-11-12T19:01:59.897Z,100.00
2022-11-12T19:03:20.899Z,100.00
2022-11-12T19:04:45.631Z,100.00
2022-11-12T19:06:14.951Z,100.00
2022-11-12T19:07:33.434Z,100.00
2022-11-12T19:09:00.422Z,100.00
2022-11-12T19:10:26.591Z,100.00
2022-11-12T19:11:46.884Z,100.00
2022-11-12T19:13:08.435Z,100.00
2022-11-12T19:14:29.993Z,100.00
2022-11-12T19:15:50.693Z,100.00
2022-11-12T19:17:12.291Z,100.00
2022-11-12T19:18:33.697Z,100.00
2022-11-12T19:19:54.210Z,100.00
2022-11-12T19:21:23.242Z,100.00
2022-11-12T19:22:44.423Z,100.00
2022-11-12T19:24:05.944Z,100.00
2022-11-12T19:25:27.144Z,100.00
2022-11-12T19:26:47.470Z,100.00
2022-11-12T19:28:07.770Z,100.00
2022-11-12T19:29:28.687Z,100.00
2022-11-12T19:30:49.813Z,100.00
2022-11-12T19:32:11.296Z,100.00
2022-11-12T19:33:32.858Z,100.00
2022-11-12T19:34:53.249Z,100.00
2022-11-12T19:36:19.650Z,100.00
2022-11-12T19:37:39.696Z,100.00
2022-11-12T19:39:00.319Z,100.00
2022-11-12T19:40:20.793Z,100.00
2022-11-12T19:41:41.855Z,100.00
2022-11-12T19:43:02.377Z,100.00
2022-11-12T19:44:22.820Z,100.00
2022-11-12T19:45:43.336Z,100.00
2022-11-12T19:47:04.802Z,100.00
2022-11-12T19:48:26.734Z,100.00
2022-11-12T19:49:47.731Z,100.00
2022-11-12T19:51:11.455Z,100.00
2022-11-12T19:52:31.696Z,100.00
2022-11-12T19:53:52.381Z,100.00
2022-11-12T19:55:14.263Z,100.00
2022-11-12T19:56:34.808Z,100.00
2022-11-12T19:57:56.346Z,100.00
2022-11-12T19:59:18.271Z,100.00
2022-11-12T20:00:39.462Z,100.00
2022-11-12T20:02:00.807Z,100.00
2022-11-12T20:03:21.283Z,100.00
2022-11-12T20:04:42.254Z,100.00
2022-11-12T20:06:18.062Z,100.00
2022-11-12T20:07:41.139Z,100.00
2022-11-12T20:09:05.000Z,100.00
2022-11-12T20:10:28.016Z,100.00
2022-11-12T20:11:50.115Z,100.00
2022-11-12T20:13:11.131Z,100.00
2022-11-12T20:14:33.167Z,100.00
2022-11-12T20:15:57.425Z,100.00
2022-11-12T20:17:18.906Z,100.00
2022-11-12T20:18:40.548Z,99.90
2022-11-12T20:20:22.532Z,98.38
2022-11-12T20:21:45.549Z,97.92
2022-11-12T20:23:06.169Z,97.66
2022-11-12T20:24:27.087Z,97.63
2022-11-12T20:25:47.648Z,97.92
2022-11-12T20:27:10.393Z,98.19
2022-11-12T20:28:34.375Z,98.52
2022-11-12T20:29:54.696Z,98.92
2022-11-12T20:31:20.036Z,98.69
2022-11-12T20:32:40.980Z,98.33
2022-11-12T20:34:01.674Z,98.52
2022-11-12T20:35:23.631Z,98.75
2022-11-12T20:36:44.958Z,98.87
2022-11-12T20:38:05.384Z,98.40
2022-11-12T20:39:26.186Z,98.21
2022-11-12T20:40:46.530Z,98.51
2022-11-12T20:42:07.490Z,97.52
2022-11-12T20:43:29.343Z,97.50
2022-11-12T20:44:49.715Z,97.58
2022-11-12T20:46:14.140Z,97.53
2022-11-12T20:47:38.325Z,97.48
2022-11-12T20:49:01.000Z,97.50
2022-11-12T20:50:22.877Z,97.55
2022-11-12T20:51:44.353Z,97.63
2022-11-12T20:53:05.126Z,97.50
2022-11-12T20:54:25.691Z,97.52
2022-11-12T20:55:46.806Z,97.54
2022-11-12T20:57:07.534Z,97.44
2022-11-12T20:58:29.571Z,97.45
2022-11-12T20:59:55.802Z,97.62
2022-11-12T21:01:19.110Z,97.92
2022-11-12T21:02:41.583Z,98.14
2022-11-12T21:04:03.353Z,98.26
2022-11-12T21:05:24.361Z,98.28
2022-11-12T21:06:45.265Z,98.31
2022-11-12T21:08:06.280Z,98.37
2022-11-12T21:09:27.127Z,98.26
2022-11-12T21:10:49.085Z,98.40
2022-11-12T21:12:09.796Z,98.01
2022-11-12T21:13:30.482Z,96.89
2022-11-12T21:14:52.941Z,96.94
2022-11-12T21:16:15.077Z,96.71
2022-11-12T21:17:35.630Z,96.65
2022-11-12T21:19:02.030Z,96.53
2022-11-12T21:20:25.648Z,96.27
2022-11-12T21:21:46.227Z,96.26
2022-11-12T21:23:07.122Z,96.57
2022-11-12T21:24:28.664Z,96.63
2022-11-12T21:25:49.919Z,96.38
2022-11-12T21:27:10.366Z,96.78
2022-11-12T21:28:36.448Z,96.25
2022-11-12T21:30:04.011Z,96.09
2022-11-12T21:31:28.382Z,96.43
2022-11-12T21:32:49.231Z,96.56
2022-11-12T21:34:10.093Z,96.96
2022-11-12T21:35:30.267Z,97.07
2022-11-12T21:36:51.315Z,97.32
2022-11-12T21:38:11.663Z,97.35
2022-11-12T21:39:33.210Z,97.02
2022-11-12T21:41:11.509Z,97.09
2022-11-12T21:42:31.740Z,96.27
2022-11-12T21:43:52.811Z,96.31
2022-11-12T21:45:13.361Z,95.98
2022-11-12T21:46:33.865Z,97.21
2022-11-12T21:47:54.851Z,95.71
2022-11-12T21:49:16.006Z,94.28
2022-11-12T21:50:38.120Z,94.51
2022-11-12T21:51:58.735Z,94.85
2022-11-12T21:53:20.511Z,95.21
2022-11-12T21:54:41.180Z,95.08
2022-11-12T21:56:08.224Z,95.98
2022-11-12T21:57:29.091Z,95.04
2022-11-12T21:58:49.616Z,94.37
2022-11-12T22:00:40.285Z,94.04
2022-11-12T22:01:35.478Z,94.17
2022-11-12T22:02:57.127Z,94.12
2022-11-12T22:04:18.556Z,94.33
2022-11-12T22:05:39.198Z,94.64
2022-11-12T22:06:59.890Z,94.39
2022-11-12T22:08:20.778Z,93.95
2022-11-12T22:09:40.817Z,93.48
2022-11-12T22:11:06.651Z,93.56
2022-11-12T22:12:27.868Z,93.95
2022-11-12T22:13:48.490Z,93.92
2022-11-12T22:15:09.535Z,94.57
2022-11-12T22:16:29.998Z,93.57
2022-11-12T22:17:50.465Z,93.32
2022-11-12T22:19:11.369Z,93.40
2022-11-12T22:20:32.499Z,93.52
2022-11-12T22:21:52.969Z,93.88
2022-11-12T22:23:13.629Z,93.53
2022-11-12T22:24:33.867Z,93.93
2022-11-12T22:25:58.340Z,94.07
2022-11-12T22:27:18.636Z,94.15
2022-11-12T22:28:39.889Z,94.27
2022-11-12T22:30:01.367Z,94.29
2022-11-12T22:31:27.896Z,94.58
2022-11-12T22:32:48.374Z,94.15
2022-11-12T22:34:08.878Z,94.87
2022-11-12T22:35:29.408Z,95.01
2022-11-12T22:36:49.805Z,95.15
2022-11-12T22:38:11.094Z,95.27
2022-11-12T22:39:31.299Z,95.23
2022-11-12T22:40:52.023Z,95.33
2022-11-12T22:42:13.081Z,95.27
2022-11-12T22:43:33.811Z,95.32
2022-11-12T22:44:54.088Z,95.22
2022-11-12T22:46:17.801Z,95.31
2022-11-12T22:47:38.343Z,95.69
2022-11-12T22:48:59.622Z,95.60
2022-11-12T22:50:20.251Z,95.79
2022-11-12T22:51:40.511Z,95.73
2022-11-12T22:53:00.841Z,96.34
2022-11-12T22:54:20.938Z,96.57
2022-11-12T22:55:41.474Z,96.63
2022-11-12T22:57:02.269Z,96.51
2022-11-12T22:58:22.739Z,96.81
2022-11-12T22:59:43.404Z,96.80
2022-11-12T23:01:05.942Z,96.86
2022-11-12T23:02:27.325Z,96.58
2022-11-12T23:03:50.940Z,96.49
2022-11-12T23:05:12.565Z,96.35
2022-11-12T23:06:34.460Z,96.43
2022-11-12T23:07:55.610Z,96.08
2022-11-12T23:09:17.400Z,95.78
2022-11-12T23:10:42.952Z,95.38
2022-11-12T23:12:00.455Z,95.42
2022-11-12T23:13:23.267Z,95.15
2022-11-12T23:14:44.056Z,95.13
2022-11-12T23:16:11.470Z,94.82
2022-11-12T23:17:31.800Z,94.57
2022-11-12T23:18:52.840Z,94.45
2022-11-12T23:20:13.532Z,94.35
2022-11-12T23:21:34.000Z,94.18
2022-11-12T23:22:55.166Z,94.36
2022-11-12T23:24:15.928Z,94.45
2022-11-12T23:25:36.472Z,94.51
2022-11-12T23:26:56.989Z,94.69
2022-11-12T23:28:17.455Z,94.82
2022-11-12T23:29:38.392Z,94.88
2022-11-12T23:30:59.495Z,94.86
2022-11-12T23:32:20.125Z,94.96
2022-11-12T23:33:52.627Z,94.59
2022-11-12T23:35:13.033Z,94.16
2022-11-12T23:36:33.961Z,94.54
2022-11-12T23:37:54.819Z,94.88
2022-11-12T23:39:15.775Z,94.89
2022-11-12T23:40:37.605Z,95.12
2022-11-12T23:41:57.961Z,95.31
2022-11-12T23:43:18.685Z,95.59
2022-11-12T23:44:39.541Z,95.72
2022-11-12T23:46:00.311Z,95.86
2022-11-12T23:47:22.159Z,95.99
2022-11-12T23:48:43.123Z,96.05
2022-11-12T23:50:04.252Z,96.43
2022-11-12T23:51:24.899Z,96.38
2022-11-12T23:52:45.951Z,96.43
2022-11-12T23:54:06.418Z,96.62
2022-11-12T23:55:29.432Z,96.89
2022-11-12T23:56:49.667Z,97.20
2022-11-12T23:58:11.791Z,97.61
2022-11-12T23:59:32.248Z,98.01
